Time;durP1;ratioP1;P1;durP2;ratioP2;P2;SDS_P1;SDS_P2;PMS_P1;PMS_P2;Temp;Humidity;BMP_temperature;BMP_pressure;BME280_temperature;BME280_humidity;BME280_pressure;Samples;Min_cycle;Max_cycle;Signal;HPM_P1;HPM_P2
2023/02/02 00:00:58;;;;;;;15.17;7.97;;;2.20;99.90;;;;;;4980623;28;20221;-69
2023/02/02 00:03:26;;;;;;;14.20;8.43;;;2.20;99.90;;;;;;4996172;28;20195;-71
2023/02/02 00:05:53;;;;;;;12.77;7.40;;;2.20;99.90;;;;;;4997603;28;20207;-71
2023/02/02 00:08:22;;;;;;;13.53;7.67;;;2.20;99.90;;;;;;4996198;28;20209;-74
2023/02/02 00:10:49;;;;;;;14.70;8.33;;;2.20;99.90;;;;;;5015128;28;20250;-72
2023/02/02 00:13:16;;;;;;;14.90;7.80;;;2.20;99.90;;;;;;5013755;28;20183;-70
2023/02/02 00:15:44;;;;;;;12.47;7.27;;;2.30;99.90;;;;;;4996443;28;20200;-77
2023/02/02 00:18:11;;;;;;;14.50;7.63;;;2.30;99.90;;;;;;5000432;28;20584;-78
2023/02/02 00:20:37;;;;;;;12.47;7.27;;;2.40;99.90;;;;;;5008670;28;20559;-72
2023/02/02 00:23:04;;;;;;;12.17;7.30;;;2.40;99.90;;;;;;4986699;28;20761;-75
2023/02/02 00:25:32;;;;;;;14.37;7.90;;;2.40;99.90;;;;;;4984439;28;20630;-77
2023/02/02 00:27:58;;;;;;;14.03;7.90;;;2.40;99.90;;;;;;4998253;28;20208;-79
2023/02/02 00:30:25;;;;;;;13.70;8.07;;;2.40;99.90;;;;;;5015691;28;20195;-70
2023/02/02 00:32:52;;;;;;;15.80;9.20;;;2.40;99.90;;;;;;4997923;28;20604;-74
2023/02/02 00:35:19;;;;;;;14.53;8.50;;;2.50;99.90;;;;;;4997939;28;20572;-76
2023/02/02 00:37:47;;;;;;;14.43;7.97;;;2.40;99.90;;;;;;4981891;28;20192;-76
2023/02/02 00:40:14;;;;;;;16.60;8.90;;;2.40;99.90;;;;;;5005024;28;20203;-75
2023/02/02 00:42:42;;;;;;;17.13;9.67;;;2.50;99.90;;;;;;5010509;28;20232;-78
2023/02/02 00:45:15;;;;;;;14.10;8.40;;;2.50;99.90;;;;;;5013220;28;20265;-74
2023/02/02 00:47:44;;;;;;;14.80;8.37;;;2.50;99.90;;;;;;5053414;28;20550;-69
2023/02/02 00:50:15;;;;;;;13.40;8.07;;;2.50;99.90;;;;;;5031817;28;20623;-70
2023/02/02 00:52:42;;;;;;;12.43;7.30;;;2.40;99.90;;;;;;5012046;28;20766;-72
2023/02/02 00:55:10;;;;;;;13.43;7.53;;;2.50;99.90;;;;;;5005204;28;20203;-70
2023/02/02 00:57:37;;;;;;;14.60;7.37;;;2.50;99.90;;;;;;5019434;28;20191;-71
2023/02/02 01:00:05;;;;;;;14.13;7.10;;;2.50;99.90;;;;;;5032711;28;20223;-70
2023/02/02 01:02:34;;;;;;;13.57;6.97;;;2.50;99.90;;;;;;5033767;28;20677;-71
2023/02/02 01:05:01;;;;;;;12.33;6.53;;;2.50;99.90;;;;;;5026150;28;20190;-75
2023/02/02 01:07:28;;;;;;;14.13;7.63;;;2.50;99.90;;;;;;5027344;28;20190;-71
2023/02/02 01:09:55;;;;;;;13.03;7.30;;;2.50;99.90;;;;;;5024768;28;20203;-72
2023/02/02 01:12:22;;;;;;;14.73;7.77;;;2.50;99.90;;;;;;5028297;28;20557;-75
2023/02/02 01:14:49;;;;;;;16.33;7.63;;;2.50;99.90;;;;;;5054437;28;20713;-76
2023/02/02 01:17:16;;;;;;;13.77;7.67;;;2.50;99.90;;;;;;5042430;28;20183;-75
2023/02/02 01:19:43;;;;;;;13.80;6.87;;;2.40;99.90;;;;;;5017342;28;20183;-69
2023/02/02 01:22:10;;;;;;;13.67;6.67;;;2.30;99.90;;;;;;5022272;28;20215;-70
2023/02/02 01:24:36;;;;;;;10.33;6.27;;;2.00;99.90;;;;;;5016079;28;20356;-70
2023/02/02 01:27:03;;;;;;;12.43;6.60;;;1.90;99.90;;;;;;5013985;28;20637;-76
2023/02/02 01:29:38;;;;;;;13.40;7.60;;;1.70;99.90;;;;;;5014700;28;20198;-72
2023/02/02 01:32:06;;;;;;;14.97;7.63;;;1.60;99.90;;;;;;5031719;28;20606;-71
2023/02/02 01:34:33;;;;;;;14.87;7.67;;;1.60;99.90;;;;;;5034330;28;20579;-77
2023/02/02 01:36:59;;;;;;;18.20;8.87;;;1.50;99.90;;;;;;5012153;28;20206;-77
2023/02/02 01:39:26;;;;;;;17.43;8.17;;;1.50;99.90;;;;;;5034347;28;20263;-69
2023/02/02 01:41:53;;;;;;;17.60;8.60;;;1.40;99.90;;;;;;5022023;28;20215;-78
2023/02/02 01:45:01;;;;;;;14.40;8.40;;;1.40;99.90;;;;;;5016249;28;20248;-76
2023/02/02 01:47:31;;;;;;;15.87;8.27;;;1.40;99.90;;;;;;5017052;28;20764;-76
2023/02/02 01:49:58;;;;;;;15.17;8.13;;;1.30;99.90;;;;;;5017866;28;20231;-72
2023/02/02 01:52:29;;;;;;;17.77;7.97;;;1.30;99.90;;;;;;5034008;28;20197;-72
2023/02/02 01:55:07;;;;;;;16.37;7.10;;;1.40;99.90;;;;;;5016101;28;20293;-78
2023/02/02 01:57:42;;;;;;;19.07;7.10;;;1.40;99.90;;;;;;5031406;28;20628;-72
2023/02/02 02:00:13;;;;;;;15.37;7.00;;;1.40;99.90;;;;;;5028029;28;20238;-72
2023/02/02 02:02:45;;;;;;;12.70;7.33;;;1.50;99.90;;;;;;5030190;28;20297;-72
2023/02/02 02:05:17;;;;;;;15.00;7.63;;;1.60;99.90;;;;;;5032708;28;20197;-74
2023/02/02 02:07:48;;;;;;;12.23;6.87;;;1.60;99.90;;;;;;5032583;28;20641;-70
2023/02/02 02:10:17;;;;;;;13.63;7.50;;;1.70;99.90;;;;;;5033075;28;20591;-70
2023/02/02 02:12:45;;;;;;;14.63;7.03;;;1.70;99.90;;;;;;5033357;28;20190;-77
2023/02/02 02:18:35;;;;;;;14.10;7.60;;;1.80;99.90;;;;;;5033263;28;20290;-70
2023/02/02 02:27:36;;;;;;;13.30;7.27;;;1.90;99.90;;;;;;5031932;28;20197;-71
2023/02/02 02:30:24;;;;;;;17.53;7.87;;;2.00;99.90;;;;;;5031998;28;20206;-70
2023/02/02 02:33:05;;;;;;;11.80;6.67;;;2.00;99.90;;;;;;5032269;28;20194;-70
2023/02/02 02:36:00;;;;;;;10.40;5.90;;;2.00;99.90;;;;;;5032080;28;20209;-70
2023/02/02 02:38:41;;;;;;;10.03;5.73;;;2.00;99.90;;;;;;5033149;28;20197;-71
2023/02/02 02:41:21;;;;;;;10.53;5.63;;;2.00;99.90;;;;;;5001766;28;20211;-70
2023/02/02 02:43:56;;;;;;;9.53;5.60;;;2.00;99.90;;;;;;5012858;28;20226;-70
2023/02/02 02:46:24;;;;;;;11.00;5.80;;;2.00;99.90;;;;;;4995434;28;20228;-73
2023/02/02 02:48:51;;;;;;;10.00;5.70;;;2.00;99.90;;;;;;5004887;28;20294;-72
2023/02/02 02:51:44;;;;;;;10.13;5.93;;;2.00;99.90;;;;;;4998962;28;20188;-75
2023/02/02 02:54:33;;;;;;;11.87;6.70;;;2.00;99.90;;;;;;5015051;28;20202;-74
2023/02/02 02:57:12;;;;;;;12.20;7.03;;;2.00;99.90;;;;;;5014945;28;20306;-77
2023/02/02 03:00:14;;;;;;;12.77;6.93;;;2.00;99.90;;;;;;5014932;28;20649;-76
2023/02/02 03:03:12;;;;;;;13.13;7.27;;;1.90;99.90;;;;;;5014712;28;20230;-75
2023/02/02 03:06:24;;;;;;;13.77;7.93;;;1.90;99.90;;;;;;5014924;28;20237;-75
2023/02/02 03:09:13;;;;;;;16.30;8.13;;;2.00;99.90;;;;;;4936107;29;20587;-76
2023/02/02 03:11:40;;;;;;;17.03;8.20;;;2.10;99.90;;;;;;4952307;29;20316;-75
2023/02/02 03:14:08;;;;;;;19.90;8.63;;;2.10;99.90;;;;;;4968206;28;20201;-76
2023/02/02 03:16:36;;;;;;;18.00;8.40;;;2.20;99.90;;;;;;4968284;28;20209;-77
2023/02/02 03:19:04;;;;;;;21.27;8.73;;;2.20;99.90;;;;;;4952239;29;20206;-74
2023/02/02 03:21:32;;;;;;;21.57;9.10;;;2.30;99.90;;;;;;4967385;28;20205;-76
2023/02/02 03:23:59;;;;;;;18.53;8.83;;;2.30;99.90;;;;;;4968132;28;20226;-78
2023/02/02 03:26:26;;;;;;;16.63;7.80;;;2.40;99.90;;;;;;4936056;29;20202;-76
2023/02/02 03:28:56;;;;;;;18.63;8.47;;;2.40;99.90;;;;;;4935899;29;20690;-76
2023/02/02 03:31:25;;;;;;;18.40;8.93;;;2.40;99.90;;;;;;4968128;28;20193;-77
2023/02/02 03:33:53;;;;;;;16.50;8.13;;;2.50;99.90;;;;;;4952026;29;20250;-73
2023/02/02 03:36:20;;;;;;;18.87;8.90;;;2.50;99.90;;;;;;4951618;28;20205;-77
2023/02/02 03:38:47;;;;;;;20.80;8.67;;;2.60;99.90;;;;;;4951941;29;20250;-76
2023/02/02 03:41:14;;;;;;;18.67;8.30;;;2.50;99.90;;;;;;4951923;28;20202;-71
2023/02/02 03:43:40;;;;;;;15.33;8.13;;;2.60;99.90;;;;;;4951717;29;20356;-75
2023/02/02 03:46:07;;;;;;;20.20;7.47;;;2.60;99.90;;;;;;4975297;28;20240;-74
2023/02/02 03:48:36;;;;;;;18.93;7.97;;;2.60;99.90;;;;;;5012422;28;20202;-74
2023/02/02 03:51:12;;;;;;;20.70;7.80;;;2.70;99.90;;;;;;4994610;28;20206;-75
2023/02/02 03:53:43;;;;;;;16.90;6.80;;;2.70;99.90;;;;;;4994608;28;20200;-74
2023/02/02 03:56:10;;;;;;;20.77;7.20;;;2.70;99.90;;;;;;5011062;28;20235;-74
2023/02/02 03:58:36;;;;;;;18.73;7.47;;;2.70;99.90;;;;;;5011323;28;20300;-74
2023/02/02 04:01:06;;;;;;;17.53;6.63;;;2.70;99.90;;;;;;5010936;28;20273;-73
2023/02/02 04:03:33;;;;;;;17.57;6.43;;;2.70;99.90;;;;;;4982590;28;20219;-73
2023/02/02 04:06:00;;;;;;;21.83;6.27;;;2.70;99.90;;;;;;5030701;28;20245;-73
2023/02/02 04:08:27;;;;;;;19.17;6.40;;;2.80;99.90;;;;;;5030714;28;20206;-70
2023/02/02 04:10:54;;;;;;;19.10;6.33;;;2.70;99.90;;;;;;5030605;28;20188;-71
2023/02/02 04:13:21;;;;;;;20.37;5.90;;;2.70;99.90;;;;;;5031779;28;20199;-69
2023/02/02 04:16:07;;;;;;;12.03;5.20;;;2.70;99.90;;;;;;5030368;28;20209;-70
2023/02/02 04:18:53;;;;;;;18.13;5.67;;;2.80;99.90;;;;;;5031699;28;20683;-71
2023/02/02 04:21:40;;;;;;;17.87;5.53;;;2.80;99.90;;;;;;5030355;28;20966;-69
2023/02/02 04:24:12;;;;;;;13.57;5.30;;;2.80;99.90;;;;;;5031775;28;20229;-71
2023/02/02 04:26:41;;;;;;;17.13;5.37;;;2.80;99.90;;;;;;5031577;28;20191;-70
2023/02/02 04:29:08;;;;;;;15.20;5.57;;;2.80;99.90;;;;;;5031809;28;20321;-70
2023/02/02 04:31:35;;;;;;;15.63;4.73;;;2.90;99.90;;;;;;5030471;28;20257;-77
2023/02/02 04:34:02;;;;;;;16.53;5.10;;;2.90;99.90;;;;;;5033039;28;20206;-76
2023/02/02 04:36:29;;;;;;;15.23;5.30;;;2.90;99.90;;;;;;5034087;28;20192;-75
2023/02/02 04:38:56;;;;;;;17.07;5.00;;;2.90;99.90;;;;;;5035765;28;20209;-77
2023/02/02 04:41:23;;;;;;;14.30;4.90;;;2.90;99.90;;;;;;5034368;28;20543;-77
2023/02/02 04:43:49;;;;;;;19.50;5.03;;;2.90;99.90;;;;;;5033652;28;20225;-71
2023/02/02 04:46:16;;;;;;;15.87;4.50;;;2.90;99.90;;;;;;5033689;28;20636;-68
2023/02/02 04:48:43;;;;;;;13.93;4.20;;;2.90;99.90;;;;;;5034204;28;20195;-69
2023/02/02 04:51:12;;;;;;;16.50;4.17;;;2.90;99.90;;;;;;5033990;28;20253;-69
2023/02/02 04:53:40;;;;;;;13.43;4.70;;;2.90;99.90;;;;;;5033765;28;20581;-70
2023/02/02 04:56:16;;;;;;;15.53;4.00;;;2.90;99.90;;;;;;5034900;28;20229;-71
2023/02/02 04:58:43;;;;;;;16.80;3.97;;;2.90;99.90;;;;;;5033747;28;20200;-70
2023/02/02 05:01:16;;;;;;;12.50;4.03;;;2.90;99.90;;;;;;5033566;28;20716;-70
2023/02/02 05:03:43;;;;;;;13.03;3.53;;;2.90;99.90;;;;;;5033601;28;20255;-68
2023/02/02 05:06:10;;;;;;;13.83;3.80;;;2.90;99.90;;;;;;5033815;28;20637;-76
2023/02/02 05:08:42;;;;;;;12.17;3.60;;;2.90;99.90;;;;;;5033393;28;20230;-76
2023/02/02 05:11:18;;;;;;;17.27;3.87;;;2.90;99.90;;;;;;5033558;28;20200;-72
2023/02/02 05:13:50;;;;;;;15.37;3.47;;;2.90;99.90;;;;;;5033412;28;20592;-71
2023/02/02 05:16:17;;;;;;;15.90;3.67;;;2.90;99.90;;;;;;5033389;28;20191;-73
2023/02/02 05:18:52;;;;;;;14.37;3.60;;;2.80;99.90;;;;;;5033508;28;20262;-74
2023/02/02 05:21:20;;;;;;;12.60;3.50;;;2.80;99.90;;;;;;5033373;28;20194;-75
2023/02/02 05:23:47;;;;;;;14.40;3.83;;;2.90;99.90;;;;;;5034845;28;20211;-75
2023/02/02 05:26:17;;;;;;;12.90;3.53;;;2.90;99.90;;;;;;5033501;28;20215;-75
2023/02/02 05:28:44;;;;;;;15.47;3.40;;;2.90;99.90;;;;;;5033395;28;20203;-75
2023/02/02 05:31:11;;;;;;;11.93;3.23;;;2.90;99.90;;;;;;5032999;28;20215;-69
2023/02/02 05:33:38;;;;;;;12.50;3.23;;;2.90;99.90;;;;;;5033098;28;20202;-72
2023/02/02 05:36:06;;;;;;;16.57;3.40;;;2.90;99.90;;;;;;5032578;28;20187;-76
2023/02/02 05:38:33;;;;;;;12.90;3.47;;;2.90;99.90;;;;;;5016337;28;20203;-73
2023/02/02 05:41:01;;;;;;;15.20;3.17;;;2.90;99.90;;;;;;5033067;28;20583;-73
2023/02/02 05:43:29;;;;;;;12.47;3.33;;;2.90;99.90;;;;;;5033683;28;20215;-74
2023/02/02 05:45:56;;;;;;;11.33;3.97;;;2.90;99.90;;;;;;5033238;28;20227;-71
2023/02/02 05:48:25;;;;;;;14.93;3.50;;;2.90;99.90;;;;;;5032785;28;20204;-70
2023/02/02 05:51:03;;;;;;;15.67;3.67;;;2.90;99.90;;;;;;5016549;28;20254;-74
2023/02/02 05:53:30;;;;;;;14.87;3.27;;;2.90;99.90;;;;;;5016331;28;20203;-76
2023/02/02 05:55:58;;;;;;;11.23;3.17;;;3.00;99.90;;;;;;5015439;28;20206;-73
2023/02/02 05:58:25;;;;;;;9.80;3.40;;;2.90;99.90;;;;;;5016533;28;20187;-76
2023/02/02 06:00:52;;;;;;;12.40;3.33;;;2.90;99.90;;;;;;5033688;28;20212;-75
2023/02/02 06:03:22;;;;;;;12.83;3.40;;;2.90;99.90;;;;;;5016208;28;20604;-76
2023/02/02 06:05:49;;;;;;;13.23;3.43;;;3.00;99.90;;;;;;5015997;28;20622;-74
2023/02/02 06:08:16;;;;;;;14.50;3.50;;;2.90;99.90;;;;;;5033931;28;20229;-76
2023/02/02 06:10:43;;;;;;;13.73;3.60;;;3.00;99.90;;;;;;5015908;28;20195;-76
2023/02/02 06:13:10;;;;;;;12.87;3.23;;;3.00;99.90;;;;;;5015894;28;20202;-74
2023/02/02 06:15:37;;;;;;;10.00;3.03;;;3.00;99.90;;;;;;5033342;28;20273;-76
2023/02/02 06:18:07;;;;;;;8.80;3.00;;;3.10;99.90;;;;;;5033366;28;20202;-75
2023/02/02 06:20:34;;;;;;;8.27;2.97;;;3.10;99.90;;;;;;5015748;28;20551;-77
2023/02/02 06:23:01;;;;;;;14.10;3.10;;;3.00;99.90;;;;;;5015725;28;20211;-78
2023/02/02 06:25:29;;;;;;;9.10;3.03;;;3.10;99.90;;;;;;5015936;28;20205;-75
2023/02/02 06:27:59;;;;;;;13.30;3.40;;;3.10;99.90;;;;;;5033434;28;20213;-78
2023/02/02 06:30:27;;;;;;;13.47;3.23;;;3.10;99.90;;;;;;5018149;28;20672;-75
2023/02/02 06:32:54;;;;;;;15.33;3.80;;;3.10;99.90;;;;;;5035209;28;20640;-73
2023/02/02 06:35:20;;;;;;;9.43;3.30;;;3.10;99.90;;;;;;5035275;28;20210;-75
2023/02/02 06:37:48;;;;;;;13.50;3.60;;;3.10;99.90;;;;;;5035437;28;20203;-73
2023/02/02 06:40:15;;;;;;;10.30;3.80;;;3.10;99.90;;;;;;5018470;28;20206;-72
2023/02/02 06:42:42;;;;;;;15.03;3.77;;;3.10;99.90;;;;;;5035115;28;20203;-78
2023/02/02 06:45:09;;;;;;;11.67;3.70;;;3.10;99.90;;;;;;5034725;28;20248;-72
2023/02/02 06:47:36;;;;;;;9.77;3.90;;;3.10;99.90;;;;;;5034844;28;20221;-73
2023/02/02 06:50:03;;;;;;;9.67;3.53;;;3.20;99.90;;;;;;5034971;28;20645;-69
2023/02/02 06:52:30;;;;;;;11.67;4.23;;;3.10;99.90;;;;;;5035023;28;20198;-74
2023/02/02 06:54:57;;;;;;;9.77;3.57;;;3.20;99.90;;;;;;5034936;28;20589;-68
2023/02/02 06:57:24;;;;;;;10.57;3.77;;;3.10;99.90;;;;;;5018187;28;20283;-70
2023/02/02 06:59:51;;;;;;;12.30;3.83;;;3.20;99.90;;;;;;5034888;28;20194;-70
2023/02/02 07:02:18;;;;;;;12.43;4.00;;;3.20;99.90;;;;;;5034844;28;20210;-70
2023/02/02 07:04:45;;;;;;;11.43;3.93;;;3.20;99.90;;;;;;5034444;28;20217;-70
2023/02/02 07:07:12;;;;;;;9.60;3.70;;;3.10;99.90;;;;;;5052467;28;20199;-69
2023/02/02 07:09:38;;;;;;;12.30;4.13;;;3.10;99.90;;;;;;5018461;28;20273;-69
2023/02/02 07:12:05;;;;;;;11.67;5.07;;;3.00;99.90;;;;;;5052581;28;20187;-70
2023/02/02 07:14:32;;;;;;;9.23;3.73;;;3.00;99.90;;;;;;5034397;28;20640;-76
2023/02/02 07:16:59;;;;;;;9.73;4.20;;;3.00;99.90;;;;;;5034858;28;20248;-76
2023/02/02 07:19:26;;;;;;;11.10;4.00;;;3.00;99.90;;;;;;5052707;28;20186;-78
2023/02/02 07:21:53;;;;;;;12.17;4.37;;;3.00;99.90;;;;;;5034573;28;20199;-78
2023/02/02 07:24:20;;;;;;;10.30;4.20;;;2.90;99.90;;;;;;5034365;28;20211;-78
2023/02/02 07:26:47;;;;;;;10.83;4.80;;;2.90;99.90;;;;;;5052257;28;20206;-78
2023/02/02 07:29:14;;;;;;;13.40;4.47;;;2.90;99.90;;;;;;5027557;28;20210;-77
2023/02/02 07:31:41;;;;;;;15.40;4.63;;;2.90;99.90;;;;;;5014478;28;20204;-69
2023/02/02 07:34:08;;;;;;;13.97;5.00;;;2.90;99.90;;;;;;5015027;28;20254;-78
2023/02/02 07:36:35;;;;;;;9.73;4.50;;;2.80;99.90;;;;;;5020851;28;20179;-77
2023/02/02 07:39:03;;;;;;;14.50;5.10;;;2.80;99.90;;;;;;5017786;28;20209;-75
2023/02/02 07:41:32;;;;;;;12.03;4.93;;;2.80;99.90;;;;;;5038051;28;20317;-76
2023/02/02 07:43:59;;;;;;;13.07;4.93;;;2.80;99.90;;;;;;5014387;28;20226;-71
2023/02/02 07:46:26;;;;;;;13.97;5.30;;;2.90;99.90;;;;;;5031841;28;20318;-69
2023/02/02 07:48:54;;;;;;;13.67;5.50;;;2.80;99.90;;;;;;5014350;28;20211;-70
2023/02/02 07:51:22;;;;;;;9.37;5.40;;;2.80;99.90;;;;;;5014367;28;20203;-69
2023/02/02 07:53:51;;;;;;;12.00;4.90;;;2.80;99.90;;;;;;5022153;28;20202;-70
2023/02/02 07:56:20;;;;;;;13.13;5.63;;;2.80;99.90;;;;;;5023380;28;20199;-69
2023/02/02 07:58:50;;;;;;;12.70;5.90;;;2.80;99.90;;;;;;5022112;28;20192;-70
2023/02/02 08:01:18;;;;;;;10.63;5.20;;;2.70;99.90;;;;;;5014474;28;20685;-71
2023/02/02 08:03:46;;;;;;;12.30;5.37;;;2.70;99.90;;;;;;5031551;28;20215;-73
2023/02/02 08:06:14;;;;;;;13.53;5.93;;;2.70;99.90;;;;;;5013917;28;20233;-81
2023/02/02 08:08:41;;;;;;;13.77;6.10;;;2.70;99.90;;;;;;5014914;28;20215;-79
2023/02/02 08:11:11;;;;;;;16.20;5.70;;;2.70;99.90;;;;;;5026122;28;20201;-68
2023/02/02 08:13:38;;;;;;;13.20;6.03;;;2.70;99.90;;;;;;5017676;28;20539;-68
2023/02/02 08:16:06;;;;;;;11.90;6.00;;;2.70;99.90;;;;;;5035714;28;20210;-69
2023/02/02 08:18:34;;;;;;;13.27;6.00;;;2.70;99.90;;;;;;5018023;28;20191;-73
2023/02/02 08:21:04;;;;;;;12.27;6.13;;;2.80;99.90;;;;;;4998657;28;20655;-69
2023/02/02 08:23:30;;;;;;;12.97;5.70;;;2.70;99.90;;;;;;4998169;28;21058;-68
2023/02/02 08:26:30;;;;;;;11.27;5.80;;;2.70;99.90;;;;;;5028806;28;20222;-69
2023/02/02 08:28:59;;;;;;;9.37;4.97;;;2.70;99.90;;;;;;4939326;29;20369;-74
2023/02/02 08:31:31;;;;;;;9.97;5.03;;;2.70;99.90;;;;;;4947874;29;20261;-73
2023/02/02 08:33:57;;;;;;;7.80;4.03;;;2.70;99.90;;;;;;4901275;29;20299;-70
2023/02/02 08:36:27;;;;;;;7.60;4.60;;;2.60;99.90;;;;;;4917693;29;20614;-70
2023/02/02 08:38:55;;;;;;;6.23;4.33;;;2.50;99.90;;;;;;4917440;29;20210;-79
2023/02/02 08:41:23;;;;;;;9.10;4.40;;;2.50;99.90;;;;;;4901163;29;20243;-70
2023/02/02 08:43:50;;;;;;;5.60;3.77;;;2.50;99.90;;;;;;4938233;29;20219;-78
2023/02/02 08:46:18;;;;;;;6.60;4.00;;;2.40;99.90;;;;;;4936122;29;20251;-68
2023/02/02 08:48:47;;;;;;;7.33;4.23;;;2.40;99.90;;;;;;4936433;29;20673;-77
2023/02/02 08:51:17;;;;;;;7.83;4.33;;;2.40;99.90;;;;;;4936521;29;20203;-81
2023/02/02 08:53:45;;;;;;;8.77;4.70;;;2.30;99.90;;;;;;4920874;29;20200;-79
2023/02/02 08:56:15;;;;;;;7.17;4.33;;;2.40;99.90;;;;;;4920332;29;20218;-77
2023/02/02 08:58:46;;;;;;;7.77;4.53;;;2.40;99.90;;;;;;4920595;29;20195;-79
2023/02/02 09:01:17;;;;;;;11.63;4.43;;;2.40;99.90;;;;;;4942356;29;20226;-71
2023/02/02 09:03:44;;;;;;;8.67;4.47;;;2.30;99.90;;;;;;4951246;28;20762;-78
2023/02/02 09:06:17;;;;;;;8.27;4.40;;;2.20;99.90;;;;;;4997872;28;20657;-75
2023/02/02 09:08:45;;;;;;;7.33;4.70;;;2.20;99.90;;;;;;5015246;28;20201;-78
2023/02/02 09:11:16;;;;;;;10.77;4.70;;;2.30;99.90;;;;;;5003561;28;20200;-78
2023/02/02 09:13:45;;;;;;;9.10;5.20;;;2.30;99.90;;;;;;5000418;28;20188;-75
2023/02/02 09:16:14;;;;;;;8.90;5.10;;;2.40;99.90;;;;;;5017457;28;20197;-75
2023/02/02 09:18:41;;;;;;;10.87;5.43;;;2.50;99.90;;;;;;5017524;28;20493;-80
2023/02/02 09:21:10;;;;;;;9.37;5.20;;;2.60;99.90;;;;;;5036132;28;20202;-77
2023/02/02 09:23:40;;;;;;;9.23;4.77;;;2.70;99.90;;;;;;5034549;28;20275;-75
2023/02/02 09:26:14;;;;;;;9.37;4.93;;;2.70;99.90;;;;;;5034474;28;20203;-76
2023/02/02 09:28:47;;;;;;;8.00;4.77;;;2.80;99.90;;;;;;5019181;28;20205;-74
2023/02/02 09:31:14;;;;;;;8.10;4.60;;;2.90;99.90;;;;;;5000111;28;20195;-76
2023/02/02 09:33:41;;;;;;;9.63;5.30;;;2.90;99.90;;;;;;5016655;28;20192;-73
2023/02/02 09:36:11;;;;;;;8.97;4.90;;;3.00;99.90;;;;;;5036845;28;20596;-76
2023/02/02 09:38:38;;;;;;;8.10;4.60;;;3.00;99.90;;;;;;5034308;28;20226;-74
2023/02/02 09:41:13;;;;;;;6.37;4.43;;;3.00;99.90;;;;;;5051634;28;20195;-77
2023/02/02 09:44:11;;;;;;;10.37;4.60;;;2.80;99.90;;;;;;5032382;28;20214;-75
2023/02/02 09:46:58;;;;;;;6.90;4.90;;;2.90;99.90;;;;;;5012678;28;20239;-73
2023/02/02 09:49:31;;;;;;;7.00;4.30;;;2.90;99.90;;;;;;5023146;28;20303;-71
2023/02/02 09:52:04;;;;;;;9.73;5.10;;;2.80;99.90;;;;;;5053851;28;20198;-72
2023/02/02 09:54:34;;;;;;;9.40;4.93;;;2.90;99.90;;;;;;5053907;28;20215;-77
2023/02/02 09:57:08;;;;;;;8.70;5.13;;;2.90;99.90;;;;;;5036117;28;20213;-73
2023/02/02 09:59:40;;;;;;;8.43;5.23;;;2.90;99.90;;;;;;5019949;28;20637;-72
2023/02/02 10:02:37;;;;;;;8.90;5.23;;;2.90;99.90;;;;;;5033361;28;20218;-72
2023/02/02 10:05:15;;;;;;;10.80;4.87;;;3.00;99.90;;;;;;4997973;28;20208;-74
2023/02/02 10:07:46;;;;;;;11.47;5.70;;;3.10;99.90;;;;;;5017914;28;20191;-75
2023/02/02 10:10:27;;;;;;;8.43;5.40;;;3.10;99.90;;;;;;5032484;28;20196;-75
2023/02/02 10:12:59;;;;;;;8.40;5.47;;;3.00;99.90;;;;;;5030377;28;20648;-72
2023/02/02 10:15:44;;;;;;;12.23;5.87;;;3.00;99.90;;;;;;5032071;28;20208;-77
2023/02/02 10:18:30;;;;;;;11.33;6.30;;;3.00;99.90;;;;;;5033949;28;20242;-75
2023/02/02 10:21:06;;;;;;;9.63;5.63;;;2.90;99.90;;;;;;5015972;28;20195;-78
2023/02/02 10:23:39;;;;;;;9.67;6.07;;;2.90;99.90;;;;;;5033300;28;20648;-73
2023/02/02 10:26:15;;;;;;;10.17;6.13;;;2.80;99.90;;;;;;5045344;28;20312;-75
2023/02/02 10:29:11;;;;;;;9.30;5.90;;;2.80;99.90;;;;;;5053336;28;20197;-75
2023/02/02 10:31:57;;;;;;;9.50;6.10;;;2.80;99.90;;;;;;5013146;28;20649;-77
2023/02/02 10:34:44;;;;;;;9.20;5.40;;;2.70;99.90;;;;;;5013979;28;20191;-75
2023/02/02 10:37:43;;;;;;;9.13;5.53;;;2.80;99.90;;;;;;5014468;28;20213;-69
2023/02/02 10:40:15;;;;;;;9.20;5.70;;;2.90;99.90;;;;;;4955468;28;20218;-68
2023/02/02 10:45:58;;;;;;;10.90;6.20;;;2.90;99.90;;;;;;4954152;28;20245;-72
2023/02/02 10:48:34;;;;;;;11.03;6.07;;;2.90;99.90;;;;;;4962664;28;20275;-72
2023/02/02 10:51:29;;;;;;;9.70;5.80;;;3.00;99.90;;;;;;4975030;28;20201;-70
2023/02/02 10:54:00;;;;;;;9.70;5.27;;;3.00;99.90;;;;;;4972010;28;20304;-71
2023/02/02 10:56:39;;;;;;;9.73;5.53;;;3.00;99.90;;;;;;4955832;28;20198;-75
2023/02/02 10:59:13;;;;;;;7.77;5.37;;;3.00;99.90;;;;;;4971905;28;20208;-71
2023/02/02 11:01:40;;;;;;;7.60;5.00;;;3.20;99.90;;;;;;4955269;28;20216;-71
2023/02/02 11:06:55;;;;;;;9.40;5.30;;;3.10;99.90;;;;;;4960828;28;20704;-73
2023/02/02 11:09:34;;;;;;;8.03;4.73;;;3.10;99.90;;;;;;4963807;28;20200;-73
2023/02/02 11:12:22;;;;;;;8.00;4.10;;;3.10;99.90;;;;;;4966161;28;21031;-73
2023/02/02 11:15:07;;;;;;;8.63;3.97;;;3.10;99.90;;;;;;4978892;28;20299;-74
2023/02/02 11:17:34;;;;;;;6.53;3.73;;;3.20;99.90;;;;;;4996726;28;20326;-74
2023/02/02 11:20:23;;;;;;;6.47;4.27;;;3.10;99.90;;;;;;5014923;28;20650;-76
2023/02/02 11:23:00;;;;;;;7.40;4.03;;;3.20;99.90;;;;;;5010832;28;20246;-73
2023/02/02 11:25:33;;;;;;;6.43;4.23;;;3.40;99.90;;;;;;5009099;28;20211;-73
2023/02/02 11:28:17;;;;;;;5.77;4.00;;;3.50;99.90;;;;;;5011188;28;20199;-75
2023/02/02 11:30:51;;;;;;;5.70;3.60;;;3.40;99.90;;;;;;5012502;28;20204;-74
2023/02/02 11:33:38;;;;;;;6.47;3.90;;;3.10;99.90;;;;;;5023876;28;20283;-75
2023/02/02 11:36:18;;;;;;;5.97;3.83;;;3.10;99.90;;;;;;5026530;28;20206;-75
2023/02/02 11:38:45;;;;;;;5.20;3.83;;;3.10;99.90;;;;;;5027978;28;20637;-75
2023/02/02 11:41:14;;;;;;;4.90;3.87;;;3.00;99.90;;;;;;5026262;28;20196;-73
2023/02/02 11:43:50;;;;;;;6.83;4.47;;;2.90;99.90;;;;;;5011686;28;20210;-74
2023/02/02 11:46:23;;;;;;;6.73;4.50;;;3.00;99.90;;;;;;5024392;28;20645;-71
2023/02/02 11:49:03;;;;;;;8.30;5.03;;;3.10;99.90;;;;;;5027868;28;20204;-75
2023/02/02 11:51:31;;;;;;;8.50;5.27;;;3.00;99.90;;;;;;4994186;28;20200;-73
2023/02/02 11:54:07;;;;;;;7.90;5.17;;;3.00;99.90;;;;;;5030414;28;20629;-74
2023/02/02 11:56:36;;;;;;;12.93;6.07;;;3.10;99.90;;;;;;5026274;28;20857;-75
2023/02/02 11:59:04;;;;;;;11.20;6.23;;;3.10;99.90;;;;;;5010536;28;20194;-73
2023/02/02 12:01:40;;;;;;;10.30;6.27;;;3.20;99.90;;;;;;5011930;28;20274;-73
2023/02/02 12:04:15;;;;;;;10.70;6.00;;;3.30;99.90;;;;;;5004316;28;20250;-72
2023/02/02 12:06:42;;;;;;;10.23;6.47;;;3.30;99.90;;;;;;5014017;28;20660;-75
2023/02/02 12:09:13;;;;;;;11.10;6.40;;;3.30;99.90;;;;;;5016204;28;20200;-79
2023/02/02 12:11:49;;;;;;;14.00;7.73;;;3.40;99.90;;;;;;5016038;28;20192;-78
2023/02/02 12:14:28;;;;;;;10.97;6.67;;;3.40;99.90;;;;;;5032596;28;20207;-75
2023/02/02 12:17:01;;;;;;;11.33;7.10;;;3.60;99.90;;;;;;5006860;28;20203;-74
2023/02/02 12:19:47;;;;;;;9.77;6.73;;;3.60;99.90;;;;;;5010414;28;20192;-74
2023/02/02 12:22:54;;;;;;;13.77;7.17;;;3.50;99.90;;;;;;5028888;28;20298;-72
2023/02/02 12:25:53;;;;;;;11.87;6.80;;;3.40;99.90;;;;;;5009770;28;20628;-76
2023/02/02 12:28:44;;;;;;;12.43;7.03;;;3.30;99.90;;;;;;5031824;28;20249;-78
2023/02/02 12:31:36;;;;;;;11.13;6.80;;;3.30;99.90;;;;;;5014075;28;20209;-80
2023/02/02 12:34:45;;;;;;;12.83;7.67;;;3.40;99.90;;;;;;5013988;28;20231;-77
2023/02/02 12:37:25;;;;;;;10.83;6.90;;;3.50;99.90;;;;;;4912367;29;20206;-76
2023/02/02 12:43:37;;;;;;;11.67;6.63;;;3.40;99.90;;;;;;4932026;29;20287;-76
2023/02/02 12:46:17;;;;;;;11.70;6.33;;;3.50;99.90;;;;;;4916920;29;20339;-77
2023/02/02 12:48:44;;;;;;;11.67;7.07;;;3.40;99.90;;;;;;4916488;29;20234;-76
2023/02/02 12:51:44;;;;;;;11.73;7.00;;;3.40;99.90;;;;;;4932587;29;20292;-75
2023/02/02 12:54:34;;;;;;;10.80;6.33;;;3.30;99.90;;;;;;4921052;29;20581;-76
2023/02/02 12:57:31;;;;;;;10.90;5.73;;;3.20;99.90;;;;;;4933732;29;20206;-76
2023/02/02 13:00:25;;;;;;;9.20;5.10;;;3.20;99.90;;;;;;4932145;29;20218;-74
2023/02/02 13:03:26;;;;;;;8.97;4.90;;;3.00;99.90;;;;;;4924383;29;20212;-75
2023/02/02 13:06:21;;;;;;;8.37;4.77;;;2.90;99.90;;;;;;4933089;29;20640;-75
2023/02/02 13:08:55;;;;;;;8.83;4.80;;;2.90;99.90;;;;;;4914114;29;20221;-75
2023/02/02 13:11:48;;;;;;;8.53;5.00;;;2.90;99.90;;;;;;4916487;29;20234;-76
2023/02/02 13:14:40;;;;;;;8.70;4.87;;;2.90;99.90;;;;;;4971410;28;20667;-76
2023/02/02 13:17:21;;;;;;;7.20;4.53;;;2.90;99.90;;;;;;5007632;28;20639;-75
2023/02/02 13:19:52;;;;;;;8.13;3.90;;;3.00;99.90;;;;;;5012991;28;20706;-70
2023/02/02 13:22:41;;;;;;;5.27;3.73;;;3.00;99.90;;;;;;5004109;28;20193;-72
2023/02/02 13:25:30;;;;;;;6.47;3.40;;;3.10;99.90;;;;;;5011351;28;20242;-72
2023/02/02 13:27:59;;;;;;;6.90;3.30;;;3.30;99.90;;;;;;5010050;28;20203;-80
2023/02/02 13:30:32;;;;;;;4.97;3.30;;;3.20;99.90;;;;;;5012473;28;20276;-78
2023/02/02 13:33:16;;;;;;;7.10;3.57;;;3.20;99.90;;;;;;4987713;28;20198;-71
2023/02/02 13:35:53;;;;;;;8.53;3.73;;;3.10;99.90;;;;;;5012332;28;20236;-76
2023/02/02 13:38:30;;;;;;;5.80;3.40;;;3.10;99.90;;;;;;5006675;28;20725;-81